Time;durP1;ratioP1;P1;durP2;ratioP2;P2;SDS_P1;SDS_P2;PMS_P1;PMS_P2;Temp;Humidity;BMP_temperature;BMP_pressure;BME280_temperature;BME280_humidity;BME280_pressure;Samples;Min_cycle;Max_cycle;Signal;HPM_P1;HPM_P2
2023/06/02 00:01:31;;;;;;;13.73;4.47;;;;;;;10.39;100.00;163281.38;5072551;28;20052;-63
2023/06/02 00:03:57;;;;;;;13.25;4.40;;;;;;;10.37;100.00;163274.66;5070004;28;20047;-64
2023/06/02 00:06:26;;;;;;;22.52;5.97;;;;;;;10.41;100.00;163286.81;5072386;28;20472;-63
2023/06/02 00:08:52;;;;;;;14.90;5.28;;;;;;;10.47;100.00;163303.00;5070948;28;20028;-63
2023/06/02 00:11:18;;;;;;;17.98;7.07;;;;;;;10.50;100.00;163308.41;5071733;28;20024;-62
2023/06/02 00:13:44;;;;;;;24.08;5.45;;;;;;;10.44;100.00;163294.91;5070475;28;20163;-62
2023/06/02 00:16:09;;;;;;;17.75;5.30;;;;;;;10.42;100.00;163288.19;5071947;28;20375;-62
2023/06/02 00:18:37;;;;;;;14.32;6.38;;;;;;;10.33;100.00;163265.16;5070219;28;20020;-63
2023/06/02 00:21:06;;;;;;;11.02;6.20;;;;;;;10.32;100.00;163262.44;5072422;28;20024;-62
2023/06/02 00:23:32;;;;;;;16.05;6.25;;;;;;;10.35;100.00;163270.56;5070727;28;20025;-62
2023/06/02 00:25:58;;;;;;;14.05;5.30;;;;;;;10.33;100.00;163265.16;5071767;28;20031;-62
2023/06/02 00:28:23;;;;;;;11.57;5.70;;;;;;;10.35;100.00;163270.56;5070521;28;20032;-62
2023/06/02 00:30:49;;;;;;;10.32;6.05;;;;;;;10.37;100.00;163274.66;5071306;28;20021;-62
2023/06/02 00:33:14;;;;;;;20.80;6.13;;;;;;;10.35;100.00;163270.56;5070021;28;20042;-63
2023/06/02 00:35:39;;;;;;;11.13;5.07;;;;;;;10.36;100.00;163273.25;5071680;28;20024;-62
2023/06/02 00:38:05;;;;;;;10.68;5.15;;;;;;;10.37;100.00;163276.03;5071548;28;20045;-62
2023/06/02 00:40:31;;;;;;;20.77;6.05;;;;;;;10.33;100.00;163265.16;5069996;28;20090;-62
2023/06/02 00:42:56;;;;;;;14.20;6.43;;;;;;;10.40;100.00;163282.78;5071429;28;20086;-62
2023/06/02 00:45:22;;;;;;;16.92;4.60;;;;;;;10.45;100.00;163297.63;5070060;28;20040;-62
2023/06/02 00:47:47;;;;;;;26.48;5.18;;;;;;;10.42;100.00;163289.50;5070881;28;20032;-62
2023/06/02 00:50:12;;;;;;;15.95;4.55;;;;;;;10.40;100.00;163284.09;5069865;28;20032;-62
2023/06/02 00:52:39;;;;;;;16.10;5.28;;;;;;;10.37;100.00;163276.03;5071112;28;20489;-62
2023/06/02 00:55:05;;;;;;;19.50;5.70;;;;;;;10.37;100.00;163276.03;5069420;28;20044;-62
2023/06/02 00:57:33;;;;;;;12.38;5.20;;;;;;;10.28;100.00;163253.00;5071364;28;20367;-62
2023/06/02 00:59:59;;;;;;;23.88;7.43;;;;;;;10.28;100.00;163251.66;5069701;28;20139;-62
2023/06/02 01:02:24;;;;;;;13.75;6.80;;;;;;;10.26;100.00;163246.25;5070732;28;20690;-63
2023/06/02 01:04:52;;;;;;;9.65;3.78;;;;;;;10.23;100.00;163238.19;5069643;28;20046;-62
2023/06/02 01:07:23;;;;;;;11.38;4.72;;;;;;;10.29;100.00;163255.72;5071282;28;20032;-63
2023/06/02 01:09:51;;;;;;;10.52;5.32;;;;;;;10.20;100.00;163230.06;5069026;28;20083;-62
2023/06/02 01:12:16;;;;;;;20.23;6.43;;;;;;;10.14;100.00;163215.22;5071252;28;20028;-62
2023/06/02 01:14:41;;;;;;;11.43;4.72;;;;;;;10.10;100.00;163205.78;5069544;28;20459;-63
2023/06/02 01:17:07;;;;;;;13.10;4.20;;;;;;;10.09;100.00;163203.06;5070676;28;20474;-63
2023/06/02 01:19:32;;;;;;;9.63;3.92;;;;;;;10.04;100.00;163189.59;5069711;28;20040;-63
2023/06/02 01:22:01;;;;;;;8.63;4.72;;;;;;;10.02;100.00;163184.19;5070629;28;20032;-62
2023/06/02 01:24:38;;;;;;;5.85;3.88;;;;;;;9.96;100.00;163168.00;5069243;28;20075;-63
2023/06/02 01:27:08;;;;;;;16.38;4.13;;;;;;;9.88;100.00;163146.41;5071231;28;20036;-63
2023/06/02 01:29:36;;;;;;;13.32;4.68;;;;;;;9.84;100.00;163138.34;5069081;28;20123;-62
2023/06/02 01:32:08;;;;;;;25.73;7.28;;;;;;;9.86;100.00;163141.03;5070643;28;20017;-62
2023/06/02 01:34:56;;;;;;;12.45;4.65;;;;;;;9.84;100.00;163138.34;5069253;28;20063;-62
2023/06/02 01:37:23;;;;;;;13.18;5.38;;;;;;;9.84;100.00;163138.34;5070762;28;20016;-62
2023/06/02 01:39:49;;;;;;;13.98;4.07;;;;;;;9.88;100.00;163146.41;5068810;28;20032;-61
2023/06/02 01:42:15;;;;;;;13.27;4.43;;;;;;;9.85;100.00;163139.66;5070898;28;20029;-62
2023/06/02 01:44:42;;;;;;;16.58;5.07;;;;;;;9.88;100.00;163147.78;5069058;28;20446;-62
2023/06/02 01:47:09;;;;;;;9.70;4.75;;;;;;;9.86;100.00;163142.38;5070586;28;20395;-61
2023/06/02 01:49:34;;;;;;;13.82;5.32;;;;;;;9.79;100.00;163124.81;5069188;28;20048;-61
2023/06/02 01:52:00;;;;;;;13.90;5.55;;;;;;;9.78;100.00;163122.16;5070484;28;20497;-61
2023/06/02 01:54:25;;;;;;;13.70;5.88;;;;;;;9.79;100.00;163124.81;5068932;28;20046;-62
2023/06/02 01:56:50;;;;;;;16.20;8.52;;;;;;;9.82;100.00;163132.94;5070442;28;20025;-62
2023/06/02 01:59:17;;;;;;;16.15;6.80;;;;;;;9.76;100.00;163115.38;5069249;28;20040;-62
2023/06/02 02:01:44;;;;;;;14.98;5.88;;;;;;;9.71;100.00;163101.91;5070151;28;20041;-61
2023/06/02 02:04:10;;;;;;;11.75;4.95;;;;;;;9.68;100.00;163095.16;5068952;28;20044;-61
2023/06/02 02:06:37;;;;;;;8.38;3.58;;;;;;;9.74;100.00;163111.34;5072698;28;20031;-62
2023/06/02 02:09:03;;;;;;;18.70;5.05;;;;;;;9.65;100.00;163087.03;5072883;28;20060;-62
2023/06/02 02:11:29;;;;;;;18.23;5.70;;;;;;;9.61;100.00;163076.28;5074518;28;20021;-62
2023/06/02 02:13:54;;;;;;;13.13;5.00;;;;;;;9.52;100.00;163053.34;5072911;28;20090;-62
2023/06/02 02:16:20;;;;;;;10.20;4.80;;;;;;;9.48;100.00;163043.91;5074251;28;20028;-61
2023/06/02 02:18:46;;;;;;;10.10;5.28;;;;;;;9.51;100.00;163051.97;5072777;28;20495;-62
2023/06/02 02:21:12;;;;;;;18.65;5.00;;;;;;;9.53;100.00;163057.38;5074491;28;20093;-62
2023/06/02 02:23:38;;;;;;;12.35;5.35;;;;;;;9.57;100.00;163065.50;5072385;28;20037;-62
2023/06/02 02:26:03;;;;;;;11.27;3.40;;;;;;;9.39;100.00;163018.25;5074096;28;20031;-62
2023/06/02 02:28:29;;;;;;;8.63;4.05;;;;;;;9.55;100.00;163060.09;5072745;28;20028;-62
2023/06/02 02:30:54;;;;;;;15.07;4.47;;;;;;;9.63;100.00;163081.69;5073680;28;20428;-61
2023/06/02 02:33:20;;;;;;;14.93;5.15;;;;;;;9.56;100.00;163062.78;5072365;28;20475;-61
2023/06/02 02:35:45;;;;;;;13.55;4.72;;;;;;;9.55;100.00;163060.09;5073829;28;20035;-61
2023/06/02 02:38:10;;;;;;;10.90;4.38;;;;;;;9.56;100.00;163062.78;5073704;28;20024;-62
2023/06/02 02:40:36;;;;;;;18.38;5.78;;;;;;;9.50;100.00;163049.28;5072123;28;20502;-62
2023/06/02 02:43:01;;;;;;;12.18;3.95;;;;;;;9.49;100.00;163045.25;5073718;28;20028;-62
2023/06/02 02:45:26;;;;;;;15.30;5.18;;;;;;;9.45;100.00;163035.81;5072201;28;20045;-63
2023/06/02 02:47:52;;;;;;;13.75;4.07;;;;;;;9.43;100.00;163030.38;5073635;28;20028;-63
2023/06/02 02:50:17;;;;;;;17.83;4.10;;;;;;;9.37;100.00;163014.22;5072366;28;20090;-62
2023/06/02 02:52:43;;;;;;;10.88;4.97;;;;;;;9.41;100.00;163025.03;5073112;28;20026;-63
2023/06/02 02:55:08;;;;;;;18.48;7.90;;;;;;;9.43;100.00;163029.06;5072053;28;20094;-62
2023/06/02 02:57:33;;;;;;;18.02;5.07;;;;;;;9.40;100.00;163022.31;5073638;28;20025;-63
2023/06/02 02:59:59;;;;;;;12.30;4.85;;;;;;;9.45;100.00;163035.81;5071904;28;20533;-63
2023/06/02 03:02:24;;;;;;;11.32;5.85;;;;;;;9.47;100.00;163041.22;5057743;28;20110;-63
2023/06/02 03:04:51;;;;;;;15.10;6.50;;;;;;;9.46;100.00;163038.50;5051920;28;20040;-64
2023/06/02 03:07:17;;;;;;;15.52;5.88;;;;;;;9.48;100.00;163043.91;5053562;28;20048;-63
2023/06/02 03:09:42;;;;;;;14.27;4.43;;;;;;;9.48;100.00;163043.91;5051571;28;20033;-63
2023/06/02 03:12:08;;;;;;;13.63;6.00;;;;;;;9.49;100.00;163046.56;5053319;28;20332;-64
2023/06/02 03:14:33;;;;;;;15.57;4.85;;;;;;;9.48;100.00;163043.91;5051682;28;20041;-64
2023/06/02 03:16:59;;;;;;;9.73;5.28;;;;;;;9.48;100.00;163042.53;5065080;28;20032;-62
2023/06/02 03:19:26;;;;;;;18.00;7.13;;;;;;;9.48;100.00;163043.91;5072022;28;20518;-63
2023/06/02 03:21:52;;;;;;;11.60;3.90;;;;;;;9.49;100.00;163046.56;5073050;28;20028;-63
2023/06/02 03:24:19;;;;;;;16.95;6.20;;;;;;;9.48;100.00;163043.91;5071405;28;20032;-63
2023/06/02 03:26:45;;;;;;;17.52;5.75;;;;;;;9.47;100.00;163041.22;5072862;28;20024;-64
2023/06/02 03:29:12;;;;;;;26.77;7.65;;;;;;;9.47;100.00;163041.22;5071430;28;20060;-63
2023/06/02 03:31:37;;;;;;;30.30;7.28;;;;;;;9.56;100.00;163062.78;5072692;28;20447;-63
2023/06/02 03:34:04;;;;;;;13.88;5.03;;;;;;;9.57;100.00;163066.81;5071693;28;20043;-63
2023/06/02 03:36:29;;;;;;;12.73;4.82;;;;;;;9.48;100.00;163043.91;5072880;28;20535;-63
2023/06/02 03:38:55;;;;;;;12.35;4.80;;;;;;;9.45;100.00;163034.47;5071017;28;20058;-63
2023/06/02 03:41:21;;;;;;;14.27;5.28;;;;;;;9.46;100.00;163038.50;5072845;28;20077;-63
2023/06/02 03:43:47;;;;;;;18.20;7.05;;;;;;;9.42;100.00;163026.34;5070805;28;20414;-63
2023/06/02 03:46:12;;;;;;;11.20;6.07;;;;;;;9.53;100.00;163057.38;5072475;28;20024;-62
2023/06/02 03:48:38;;;;;;;9.23;4.47;;;;;;;9.53;100.00;163057.38;5071108;28;20044;-61
2023/06/02 03:51:03;;;;;;;23.80;7.75;;;;;;;9.57;100.00;163065.50;5072699;28;20479;-62
2023/06/02 03:53:30;;;;;;;17.35;4.40;;;;;;;9.58;100.00;163068.16;5070798;28;20444;-62
2023/06/02 03:55:56;;;;;;;14.35;4.93;;;;;;;9.58;100.00;163068.16;5072321;28;20082;-60
2023/06/02 03:58:22;;;;;;;17.23;5.05;;;;;;;9.59;100.00;163072.25;5070711;28;20028;-62
2023/06/02 04:00:48;;;;;;;21.05;5.82;;;;;;;9.58;100.00;163069.53;5071754;28;20060;-62
2023/06/02 04:03:13;;;;;;;10.98;4.25;;;;;;;9.60;100.00;163073.56;5070892;28;20031;-62
2023/06/02 04:05:39;;;;;;;12.68;4.60;;;;;;;9.60;100.00;163073.56;5071706;28;20016;-62
2023/06/02 04:08:04;;;;;;;12.68;4.90;;;;;;;9.61;100.00;163077.59;5071318;28;20028;-63
2023/06/02 04:10:32;;;;;;;15.38;5.50;;;;;;;9.65;100.00;163088.41;5070853;28;20078;-62
2023/06/02 04:12:57;;;;;;;9.40;4.07;;;;;;;9.71;100.00;163103.25;5071624;28;20456;-62
2023/06/02 04:15:22;;;;;;;16.27;4.60;;;;;;;9.74;100.00;163111.34;5070360;28;20548;-63
2023/06/02 04:17:48;;;;;;;18.25;5.55;;;;;;;9.74;100.00;163111.34;5071967;28;20021;-62
2023/06/02 04:20:13;;;;;;;11.15;4.70;;;;;;;9.72;100.00;163105.91;5070571;28;20044;-63
2023/06/02 04:22:38;;;;;;;12.93;4.85;;;;;;;9.81;100.00;163130.22;5071485;28;20020;-64
2023/06/02 04:25:05;;;;;;;13.68;4.65;;;;;;;9.79;100.00;163124.81;5070222;28;20094;-63
2023/06/02 04:27:30;;;;;;;12.40;5.47;;;;;;;9.77;100.00;163119.44;5072182;28;20074;-63
2023/06/02 04:29:55;;;;;;;18.88;7.45;;;;;;;9.80;100.00;163126.19;5068982;28;20036;-64
2023/06/02 04:32:21;;;;;;;12.13;5.07;;;;;;;9.82;100.00;163132.94;5070250;28;20032;-64
2023/06/02 04:34:46;;;;;;;24.33;5.68;;;;;;;9.76;100.00;163116.75;5068203;28;20044;-64
2023/06/02 04:37:12;;;;;;;29.92;8.07;;;;;;;9.78;100.00;163122.16;5069210;28;20044;-63
2023/06/02 04:39:37;;;;;;;17.75;5.75;;;;;;;9.82;100.00;163132.94;5068712;28;20040;-63
2023/06/02 04:42:03;;;;;;;23.02;5.45;;;;;;;9.80;100.00;163127.50;5069023;28;20017;-64
2023/06/02 04:44:29;;;;;;;17.27;4.78;;;;;;;9.79;100.00;163124.81;5069007;28;20044;-64
2023/06/02 04:46:54;;;;;;;13.93;6.03;;;;;;;9.83;100.00;163134.25;5070382;28;20021;-62
2023/06/02 04:49:20;;;;;;;16.75;5.18;;;;;;;9.87;100.00;163143.69;5062805;28;20373;-62
2023/06/02 04:51:45;;;;;;;19.80;5.65;;;;;;;9.93;100.00;163161.25;5050517;28;20098;-62
2023/06/02 04:54:10;;;;;;;16.70;5.72;;;;;;;9.92;100.00;163157.22;5049407;28;20045;-62
2023/06/02 04:56:38;;;;;;;18.88;5.38;;;;;;;10.03;100.00;163185.56;5047896;28;20032;-62
2023/06/02 04:59:04;;;;;;;17.02;5.82;;;;;;;10.01;100.00;163181.53;5055975;28;20044;-63
2023/06/02 05:01:29;;;;;;;15.60;5.63;;;;;;;9.98;100.00;163173.41;5070271;28;20094;-65
2023/06/02 05:03:55;;;;;;;19.92;6.20;;;;;;;9.97;100.00;163170.69;5068250;28;20044;-65
2023/06/02 05:06:20;;;;;;;10.00;3.75;;;;;;;10.02;100.00;163182.84;5070641;28;20017;-64
2023/06/02 05:08:45;;;;;;;11.85;5.15;;;;;;;10.06;100.00;163195.00;5068359;28;20047;-64
2023/06/02 05:11:11;;;;;;;24.05;5.38;;;;;;;10.07;100.00;163197.69;5070059;28;20024;-64
2023/06/02 05:13:37;;;;;;;24.00;7.40;;;;;;;10.10;100.00;163205.78;5068696;28;20047;-64
2023/06/02 05:16:03;;;;;;;17.83;5.82;;;;;;;10.11;100.00;163208.47;5058415;28;20090;-65
2023/06/02 05:18:28;;;;;;;10.85;5.20;;;;;;;10.10;100.00;163204.44;5050697;28;20024;-64
2023/06/02 05:20:54;;;;;;;18.30;5.82;;;;;;;10.13;100.00;163213.88;5069877;28;20059;-65
2023/06/02 05:23:19;;;;;;;15.27;5.30;;;;;;;10.09;100.00;163203.06;5068879;28;20020;-64
2023/06/02 05:25:47;;;;;;;18.50;4.70;;;;;;;10.08;100.00;163200.41;5070427;28;20032;-64
2023/06/02 05:28:13;;;;;;;16.65;4.63;;;;;;;10.12;100.00;163209.84;5069070;28;20637;-64
2023/06/02 05:30:38;;;;;;;20.10;7.13;;;;;;;10.09;100.00;163203.06;5066997;28;20047;-64
2023/06/02 05:33:03;;;;;;;17.00;6.78;;;;;;;10.13;100.00;163213.88;5070378;28;20028;-64
2023/06/02 05:35:29;;;;;;;27.17;5.03;;;;;;;10.08;100.00;163199.03;5067421;28;20105;-65
2023/06/02 05:37:54;;;;;;;13.48;5.50;;;;;;;10.10;100.00;163205.78;5070029;28;20028;-62
2023/06/02 05:40:19;;;;;;;26.23;5.88;;;;;;;10.07;100.00;163197.69;5068957;28;20043;-60
2023/06/02 05:42:45;;;;;;;15.15;5.05;;;;;;;10.17;100.00;163223.34;5068626;28;20468;-62
2023/06/02 05:45:10;;;;;;;18.05;4.38;;;;;;;10.26;100.00;163246.25;5068559;28;20052;-62
2023/06/02 05:47:35;;;;;;;14.13;5.53;;;;;;;10.34;100.00;163266.53;5069699;28;20021;-62
2023/06/02 05:50:01;;;;;;;17.42;4.82;;;;;;;10.28;100.00;163251.66;5067844;28;20037;-61
2023/06/02 05:52:26;;;;;;;11.13;3.42;;;;;;;10.32;100.00;163263.81;5069741;28;20552;-61
2023/06/02 05:54:53;;;;;;;12.77;4.75;;;;;;;10.35;100.00;163270.56;5068416;28;20040;-62
2023/06/02 05:57:18;;;;;;;13.45;4.70;;;;;;;10.41;100.00;163285.47;5068805;28;20035;-62
2023/06/02 05:59:43;;;;;;;15.20;5.57;;;;;;;10.51;100.00;163312.44;5068123;28;20037;-61
2023/06/02 06:02:09;;;;;;;16.75;5.55;;;;;;;10.62;100.00;163340.78;5070004;28;20052;-62
2023/06/02 06:04:34;;;;;;;24.10;6.65;;;;;;;10.71;100.00;163365.09;5066770;28;20094;-61
2023/06/02 06:07:00;;;;;;;23.52;5.43;;;;;;;10.58;100.00;163331.31;5069671;28;20468;-61
2023/06/02 06:09:25;;;;;;;20.80;6.55;;;;;;;10.59;100.00;163332.72;5068711;28;20036;-61
2023/06/02 06:11:50;;;;;;;16.13;5.05;;;;;;;10.51;100.00;163311.09;5068935;28;20021;-62
2023/06/02 06:14:16;;;;;;;20.98;5.50;;;;;;;10.59;100.00;163332.72;5067285;28;20044;-62
2023/06/02 06:16:41;;;;;;;15.10;5.20;;;;;;;10.56;100.00;163325.97;5069158;28;20028;-61
2023/06/02 06:19:07;;;;;;;17.08;7.25;;;;;;;10.60;100.00;163335.41;5067501;28;20044;-62
2023/06/02 06:21:32;;;;;;;16.70;5.13;;;;;;;10.65;100.00;163348.91;5068667;28;20020;-61
2023/06/02 06:23:58;;;;;;;18.05;5.35;;;;;;;10.70;100.00;163361.06;5067891;28;20040;-62
2023/06/02 06:26:23;;;;;;;11.88;5.43;;;;;;;10.58;100.00;163330.00;5068880;28;20039;-61
2023/06/02 06:28:48;;;;;;;15.07;4.85;;;;;;;10.75;100.00;163375.91;5066984;28;20509;-61
2023/06/02 06:31:14;;;;;;;29.20;6.70;;;;;;;10.90;100.00;163413.72;5069003;28;20043;-61
2023/06/02 06:33:39;;;;;;;19.58;4.97;;;;;;;10.99;100.00;163437.97;5067435;28;20044;-61
2023/06/02 06:36:05;;;;;;;16.13;4.70;;;;;;;11.04;100.00;163450.13;5050643;28;20033;-62
2023/06/02 06:38:30;;;;;;;26.98;7.88;;;;;;;11.19;100.00;163489.31;5050831;28;20156;-59
2023/06/02 06:40:55;;;;;;;24.10;7.03;;;;;;;11.26;100.00;163508.22;5069071;28;20037;-62
2023/06/02 06:43:21;;;;;;;18.05;5.65;;;;;;;11.32;100.00;163524.41;5067980;28;20070;-62
2023/06/02 06:45:46;;;;;;;13.25;4.50;;;;;;;11.50;100.00;163570.34;5069835;28;20474;-61
2023/06/02 06:48:11;;;;;;;26.58;6.22;;;;;;;11.58;100.00;163591.91;5069697;28;20029;-62
2023/06/02 06:50:37;;;;;;;12.10;5.13;;;;;;;11.65;100.00;163609.50;5067641;28;20039;-62
2023/06/02 06:53:05;;;;;;;16.63;6.47;;;;;;;11.54;100.00;163582.47;5072832;28;20024;-62
2023/06/02 06:55:30;;;;;;;16.90;5.72;;;;;;;11.45;100.00;163556.81;5071838;28;20040;-63
2023/06/02 06:57:56;;;;;;;22.15;7.60;;;;;;;11.45;100.00;163556.81;5072747;28;20031;-61
2023/06/02 07:00:21;;;;;;;12.48;5.10;;;;;;;11.55;100.00;163583.84;5071911;28;20036;-62
2023/06/02 07:02:48;;;;;;;24.42;6.40;;;;;;;11.61;100.00;163598.72;5071568;28;20110;-61
2023/06/02 07:05:14;;;;;;;36.72;6.93;;;;;;;11.61;100.00;163598.72;5070741;28;20072;-62
2023/06/02 07:07:39;;;;;;;16.35;6.22;;;;;;;11.61;100.00;163600.03;5071804;28;20551;-61
2023/06/02 07:10:05;;;;;;;14.55;5.25;;;;;;;11.66;100.00;163613.53;5071337;28;20048;-62
2023/06/02 07:12:31;;;;;;;25.30;5.57;;;;;;;11.75;100.00;163637.84;5072817;28;20476;-61
2023/06/02 07:14:56;;;;;;;19.75;5.47;;;;;;;11.54;100.00;163581.13;5069156;28;20423;-62
2023/06/02 07:17:21;;;;;;;19.55;5.53;;;;;;;11.42;100.00;163551.44;5056439;28;20017;-61
2023/06/02 07:19:47;;;;;;;20.98;6.30;;;;;;;11.45;100.00;163558.19;5054985;28;20044;-62
2023/06/02 07:22:12;;;;;;;14.38;5.00;;;;;;;11.65;100.00;163609.50;5061862;28;20036;-61
2023/06/02 07:24:37;;;;;;;15.15;4.90;;;;;;;11.62;100.00;163602.75;5062408;28;20048;-61
2023/06/02 07:27:03;;;;;;;16.73;5.00;;;;;;;11.66;100.00;163613.53;5071677;28;20454;-61
2023/06/02 07:29:28;;;;;;;16.73;5.03;;;;;;;11.71;100.00;163625.69;5070896;28;20040;-61
2023/06/02 07:31:54;;;;;;;12.80;6.30;;;;;;;11.67;100.00;163616.22;5072594;28;20375;-61
2023/06/02 07:34:19;;;;;;;19.05;7.88;;;;;;;11.79;100.00;163645.97;5070768;28;20037;-61
2023/06/02 07:36:47;;;;;;;32.92;9.95;;;;;;;11.82;100.00;163655.44;5072467;28;20032;-62
2023/06/02 07:39:13;;;;;;;10.90;4.25;;;;;;;11.75;100.00;163637.84;5070910;28;20561;-62
2023/06/02 07:41:38;;;;;;;19.15;6.25;;;;;;;11.78;100.00;163644.59;5072205;28;20028;-61
2023/06/02 07:44:03;;;;;;;13.35;4.53;;;;;;;11.85;100.00;163662.19;5071108;28;20039;-61
2023/06/02 07:46:29;;;;;;;37.28;6.72;;;;;;;11.97;100.00;163694.63;5070862;28;20418;-61
2023/06/02 07:48:54;;;;;;;18.90;6.15;;;;;;;12.09;100.00;163724.38;5070435;28;20056;-61
2023/06/02 07:51:20;;;;;;;37.17;8.93;;;;;;;12.14;100.00;163737.88;5071034;28;20028;-61
2023/06/02 07:53:45;;;;;;;24.77;5.47;;;;;;;12.00;100.00;163702.75;5070513;28;20111;-62
2023/06/02 07:56:10;;;;;;;44.17;8.70;;;;;;;12.15;100.00;163740.59;5071902;28;20082;-61
2023/06/02 07:58:36;;;;;;;29.67;5.72;;;;;;;12.31;100.00;163782.47;5070643;28;20036;-61
2023/06/02 08:01:01;;;;;;;11.25;4.68;;;;;;;12.36;100.00;163797.34;5072094;28;20048;-62
2023/06/02 08:03:27;;;;;;;17.73;4.68;;;;;;;12.18;100.00;163750.03;5069284;28;20020;-61
2023/06/02 08:05:52;;;;;;;18.52;5.38;;;;;;;12.24;100.00;163764.91;5072089;28;20043;-61
2023/06/02 08:08:17;;;;;;;18.55;4.43;;;;;;;12.38;100.00;163802.75;5070663;28;20062;-62
2023/06/02 08:10:43;;;;;;;16.20;7.22;;;;;;;12.47;100.00;163824.38;5071693;28;20016;-61
2023/06/02 08:13:11;;;;;;;18.90;5.20;;;;;;;12.60;100.00;163859.50;5070610;28;20025;-62
2023/06/02 08:15:36;;;;;;;26.13;5.93;;;;;;;12.48;100.00;163827.03;5070089;28;20510;-62
2023/06/02 08:18:01;;;;;;;19.70;6.20;;;;;;;12.44;100.00;163817.59;5071909;28;20583;-61
2023/06/02 08:20:27;;;;;;;27.17;5.28;;;;;;;12.58;100.00;163854.09;5069519;28;20063;-61
2023/06/02 08:22:52;;;;;;;21.55;7.38;;;;;;;12.63;100.00;163867.59;5070670;28;20024;-61
2023/06/02 08:25:17;;;;;;;18.52;7.07;;;;;;;12.70;100.00;163886.50;5069015;28;20060;-61
2023/06/02 08:27:44;;;;;;;19.38;5.15;;;;;;;12.58;100.00;163854.09;5069274;28;20016;-61
2023/06/02 08:30:11;;;;;;;16.25;5.70;;;;;;;12.59;100.00;163856.78;5068657;28;20036;-62
2023/06/02 08:32:36;;;;;;;30.73;5.28;;;;;;;12.53;100.00;163840.59;5069450;28;20035;-62
2023/06/02 08:35:01;;;;;;;17.25;5.93;;;;;;;12.36;100.00;163797.34;5067990;28;20044;-61
2023/06/02 08:37:29;;;;;;;18.65;7.07;;;;;;;12.57;100.00;163851.38;5070014;28;20383;-61
2023/06/02 08:39:55;;;;;;;30.55;6.97;;;;;;;12.61;100.00;163860.84;5068621;28;20514;-61
2023/06/02 08:42:22;;;;;;;11.45;4.32;;;;;;;12.68;100.00;163879.75;5071326;28;20040;-62
2023/06/02 08:44:48;;;;;;;10.93;5.78;;;;;;;12.67;100.00;163878.44;5069303;28;20063;-62
2023/06/02 08:47:14;;;;;;;21.83;5.72;;;;;;;12.87;100.00;163928.44;5071432;28;20467;-61
2023/06/02 08:49:42;;;;;;;13.38;4.93;;;;;;;12.95;100.00;163951.41;5069227;28;20098;-61
2023/06/02 08:52:28;;;;;;;;;;;;;;;13.24;100.00;164027.09;5071834;28;20025;-62
2023/06/02 08:54:55;;;;;;;17.10;5.40;;;;;;;13.17;100.00;164008.19;5069388;28;20144;-61
2023/06/02 08:57:22;;;;;;;17.65;5.78;;;;;;;13.43;100.00;164077.19;5070859;28;20082;-61
2023/06/02 08:59:48;;;;;;;22.42;4.75;;;;;;;13.46;100.00;164085.31;5069496;28;20040;-62
2023/06/02 09:02:15;;;;;;;24.75;7.38;;;;;;;13.50;100.00;164094.78;5070798;28;20044;-61
2023/06/02 09:04:41;;;;;;;18.80;4.65;;;;;;;13.07;100.00;163981.16;5068848;28;20037;-61
2023/06/02 09:07:12;;;;;;;22.15;5.80;;;;;;;13.01;100.00;163967.63;5070904;28;20031;-62
2023/06/02 09:09:41;;;;;;;18.10;5.88;;;;;;;13.07;100.00;163981.16;5069322;28;20044;-61
2023/06/02 09:12:08;;;;;;;28.88;8.85;;;;;;;13.02;100.00;163970.31;5070369;28;20390;-61
2023/06/02 09:14:34;;;;;;;12.95;5.22;;;;;;;13.07;100.00;163981.16;5068896;28;20199;-61
2023/06/02 09:17:00;;;;;;;17.35;5.10;;;;;;;13.11;100.00;163991.97;5070852;28;20384;-61
2023/06/02 09:19:25;;;;;;;14.02;4.15;;;;;;;13.15;100.00;164002.75;5068964;28;20035;-62
2023/06/02 09:21:51;;;;;;;18.20;6.35;;;;;;;13.16;100.00;164005.47;5070490;28;20286;-62
2023/06/02 09:24:33;;;;;;;20.30;6.45;;;;;;;13.35;100.00;164054.16;5069297;28;20128;-61
2023/06/02 09:26:58;;;;;;;21.70;5.75;;;;;;;13.58;100.00;164116.41;5070328;28;20032;-62
2023/06/02 09:29:24;;;;;;;27.38;5.57;;;;;;;13.69;100.00;164143.44;5069504;28;20445;-62
2023/06/02 09:31:54;;;;;;;20.30;5.20;;;;;;;13.55;100.00;164108.28;5070364;28;20463;-62
2023/06/02 09:34:22;;;;;;;13.60;4.32;;;;;;;13.66;100.00;164136.69;5068873;28;20124;-62
2023/06/02 09:36:52;;;;;;;15.03;6.20;;;;;;;13.47;100.00;164086.66;5070526;28;20027;-61
2023/06/02 09:39:43;;;;;;;10.48;5.28;;;;;;;13.62;100.00;164127.22;5069081;28;20106;-62
2023/06/02 09:42:10;;;;;;;22.60;8.82;;;;;;;13.75;100.00;164159.66;5070542;28;20024;-62
2023/06/02 09:44:36;;;;;;;15.63;4.82;;;;;;;13.82;100.00;164178.59;5059425;28;20091;-61
2023/06/02 09:47:03;;;;;;;17.52;4.88;;;;;;;13.91;100.00;164201.63;5050348;28;20388;-62
2023/06/02 09:49:42;;;;;;;11.15;4.35;;;;;;;14.16;100.00;164267.88;5048949;28;20415;-62
2023/06/02 09:52:10;;;;;;;;;;;;;;;14.05;100.00;164238.09;5051152;28;20028;-62
2023/06/02 09:54:35;;;;;;;;;;;;;;;13.92;100.00;164205.66;5048982;28;19913;-62
2023/06/02 09:57:01;;;;;;;18.53;6.40;;;;;;;13.78;100.00;164169.13;5050357;28;19919;-62
2023/06/02 09:59:29;;;;;;;15.32;4.50;;;;;;;13.74;100.00;164156.94;5048852;28;20494;-62
2023/06/02 10:01:54;;;;;;;15.23;5.78;;;;;;;13.96;100.00;164216.47;5049652;28;20049;-62
2023/06/02 10:04:20;;;;;;;14.95;5.90;;;;;;;14.04;100.00;164235.38;5048675;28;20095;-62
2023/06/02 10:06:54;;;;;;;15.10;4.80;;;;;;;14.05;100.00;164238.09;5050220;28;20472;-62
2023/06/02 10:09:42;;;;;;;15.20;6.15;;;;;;;14.00;100.00;164224.59;5048584;28;20055;-62
2023/06/02 10:12:54;;;;;;;21.13;5.35;;;;;;;13.96;100.00;164215.13;5050375;28;20086;-62
2023/06/02 10:15:53;;;;;;;17.35;7.35;;;;;;;14.13;100.00;164259.75;5046600;28;20044;-62
2023/06/02 10:18:47;;;;;;;24.33;9.00;;;;;;;14.41;100.00;164332.78;5048447;28;20103;-62
2023/06/02 10:21:45;;;;;;;21.10;5.50;;;;;;;14.66;100.00;164397.81;5050377;28;20478;-62
2023/06/02 10:24:10;;;;;;;15.85;6.07;;;;;;;14.80;100.00;164435.69;5048351;28;20037;-62
2023/06/02 10:26:57;;;;;;;14.60;7.22;;;;;;;15.05;100.00;164500.66;5050458;28;20471;-62
2023/06/02 10:29:25;;;;;;;16.80;6.50;;;;;;;15.22;100.00;164546.72;5053120;28;20041;-63
2023/06/02 10:31:51;;;;;;;15.95;6.40;;;;;;;15.28;100.00;164560.22;5054039;28;20025;-62
2023/06/02 10:34:34;;;;;;;16.33;5.18;;;;;;;15.18;100.00;164535.84;5052813;28;20115;-62
2023/06/02 10:37:00;;;;;;;18.38;6.32;;;;;;;15.35;100.00;164579.16;5054431;28;20364;-62
2023/06/02 10:39:40;;;;;;;13.38;5.40;;;;;;;15.21;100.00;164544.00;5052336;28;20112;-62
2023/06/02 10:42:13;;;;;;;10.45;5.97;;;;;;;14.96;100.00;164476.28;5054043;28;20039;-62
2023/06/02 10:44:38;;;;;;;25.35;7.78;;;;;;;15.15;100.00;164527.72;5052158;28;20108;-61
2023/06/02 10:47:19;;;;;;;19.23;6.35;;;;;;;15.36;100.00;164583.22;5053740;28;20017;-62
2023/06/02 10:49:52;;;;;;;15.05;6.25;;;;;;;15.21;100.00;164542.59;5052381;28;20495;-62
2023/06/02 10:52:17;;;;;;;16.80;6.55;;;;;;;15.11;100.00;164516.91;5053823;28;20032;-62
2023/06/02 10:54:43;;;;;;;14.88;6.88;;;;;;;15.16;100.00;164529.09;5051856;28;20052;-62
2023/06/02 10:57:09;;;;;;;11.63;5.15;;;;;;;15.21;100.00;164544.00;5053673;28;20032;-61
2023/06/02 10:59:36;;;;;;;15.60;5.03;;;;;;;15.48;100.00;164614.34;5052189;28;20037;-62
2023/06/02 11:02:02;;;;;;;16.98;6.40;;;;;;;15.84;100.00;164709.19;5053421;28;20045;-62
2023/06/02 11:04:42;;;;;;;11.70;5.05;;;;;;;16.15;100.00;164789.09;5052201;28;20090;-62
2023/06/02 11:07:18;;;;;;;24.88;7.07;;;;;;;16.41;100.00;164858.19;5053559;28;20510;-62
2023/06/02 11:09:48;;;;;;;12.80;5.13;;;;;;;16.87;100.00;164977.34;5051710;28;20381;-63
2023/06/02 11:12:15;;;;;;;10.73;4.63;;;;;;;16.30;100.00;164829.72;5053397;28;20476;-62